アデレード の空港の天気 - METARとTAF

アデレード空港 ( YPAD / ADL ) - オーストラリア 南オーストラリア州アデレード
飛行場実況気象(Metar)
観測時間08/17 21:00 ACST (08/17 11:30 UTC)
風向・風速北北東 3m/s
視程10km以上
天気現象
なし
気温16℃
湿度63%
気圧1010hPa
METARYPAD 171130Z 03006KT CAVOK 16/09 Q1010 NOSIG
過去の天気等 Google飛行場航空写真 Wunderground天気予報

過去48時間のMETAR

飛行場予報(TAF)
発表時間: 8/17 20:48 ACST (8/17 11:18 UTC)
予報対象時間: 17日21時 ACST ~ 19日3時 ACST
風向・風速北 6m/s
視程10km以上
なし
17日23時 ACST から
風向・風速北北西 5m/s
視程10km以上
天気現象弱いしゅう雨
全天の4割程度の雲 雲底高度 1370m
18日1時 ACST から
風向・風速西北西 7m/s
視程10km以上
天気現象弱いしゅう雨
全天の4割程度の雲 雲底高度 760m
全天の8割程度の雲 雲底高度 1070m
18日6時 ACST から
風向・風速西北西 10m/s
視程10km以上
天気現象弱いしゅう雨
全天の4割程度の雲 雲底高度 610m
全天の8割程度の雲 雲底高度 910m
18日8時 ACST から
風向・風速西 11m/s 瞬間風速 18m/s
視程10km以上
天気現象弱いしゅう雨
少しの雲 雲底高度 610m
全天の8割程度の雲 雲底高度 1070m
18日15時 ACST から
風向・風速西南西 9m/s
視程10km以上
天気現象弱いしゅう雨
全天の4割程度の雲 雲底高度 1070m
TAF AMD YPAD 171118Z 1712/1818 01012KT CAVOK
FM171400 34010KT 9999 -SHRA SCT045
FM171600 30014KT 9999 -SHRA SCT025 BKN035
FM172100 29020KT 9999 -SHRA SCT020 BKN030
FM172300 27022G35KT 9999 -SHRA FEW020 BKN035
FM180600 24018KT 9999 -SHRA SCT035 INTER 1717/1723 5000 SHRA SCT012 BKN020 INTER 1723/1803 26025G38KT 5000 SHRA FEW015 BKN025 INTER 1803/1812 3000 SHRAGS FEW020 BKN025 INTER 1812/1818 5000 SHRAGS FEW025 BKN030